Time;durP1;ratioP1;P1;durP2;ratioP2;P2;SDS_P1;SDS_P2;PMS_P1;PMS_P2;Temp;Humidity;BMP_temperature;BMP_pressure;BME280_temperature;BME280_humidity;BME280_pressure;Samples;Min_cycle;Max_cycle;Signal;HPM_P1;HPM_P2
2022/08/04 00:01:32;;;;;;;13.60;11.28;;;;;;;17.18;66.97;97451.36;1680785;85;25960;-75
2022/08/04 00:04:27;;;;;;;13.50;12.07;;;;;;;17.15;67.11;97459.50;1680889;85;27482;-75
2022/08/04 00:07:17;;;;;;;15.43;11.33;;;;;;;17.14;67.09;97457.05;1680803;85;26864;-74
2022/08/04 00:10:03;;;;;;;13.25;11.90;;;;;;;17.11;67.14;97449.37;1632065;87;25881;-74
2022/08/04 00:12:33;;;;;;;15.53;12.43;;;;;;;17.03;67.19;97455.23;1574973;89;25845;-74
2022/08/04 00:15:03;;;;;;;13.78;12.18;;;;;;;16.98;67.36;97449.72;1575317;89;25871;-74
2022/08/04 00:17:45;;;;;;;11.97;10.80;;;;;;;16.92;67.50;97451.00;1575346;89;28294;-75
2022/08/04 00:20:17;;;;;;;16.17;11.75;;;;;;;16.89;67.55;97450.16;1573676;91;34850;-74
2022/08/04 00:22:47;;;;;;;15.83;12.50;;;;;;;16.87;67.59;97449.58;1526880;93;25865;-74
2022/08/04 00:25:14;;;;;;;16.25;12.43;;;;;;;16.81;67.62;97458.74;1501973;95;26696;-74
2022/08/04 00:27:40;;;;;;;12.43;11.08;;;;;;;16.77;67.71;97463.06;1501934;95;25806;-74
2022/08/04 00:30:08;;;;;;;13.58;11.83;;;;;;;16.67;67.76;97460.69;1501895;95;27408;-75
2022/08/04 00:32:35;;;;;;;14.60;10.48;;;;;;;16.65;67.83;97456.88;1501684;95;25837;-74
2022/08/04 00:35:03;;;;;;;13.90;11.03;;;;;;;16.65;67.92;97463.69;1501921;95;26525;-74
2022/08/04 00:37:30;;;;;;;15.20;11.20;;;;;;;16.62;67.99;97468.27;1501890;95;26051;-74
2022/08/04 00:39:57;;;;;;;12.63;11.12;;;;;;;16.61;68.01;97467.95;1508318;94;25859;-74
2022/08/04 00:42:33;;;;;;;15.72;10.88;;;;;;;16.56;68.04;97470.58;1583879;90;27475;-74
2022/08/04 00:45:08;;;;;;;13.32;10.43;;;;;;;16.54;68.12;97468.66;1523022;92;25839;-74
2022/08/04 00:48:08;;;;;;;12.28;10.25;;;;;;;16.53;68.23;97469.73;1579798;90;25785;-74
2022/08/04 00:50:48;;;;;;;13.58;10.95;;;;;;;16.50;68.23;97475.66;1568113;91;25993;-74
2022/08/04 00:53:29;;;;;;;11.75;10.32;;;;;;;16.42;68.35;97470.64;1568301;91;25767;-74
2022/08/04 00:56:10;;;;;;;13.10;10.70;;;;;;;16.41;68.45;97474.44;1568176;91;27506;-74
2022/08/04 00:58:48;;;;;;;11.75;10.48;;;;;;;16.38;68.51;97474.91;1607268;89;25729;-74
2022/08/04 01:01:32;;;;;;;12.88;10.43;;;;;;;16.35;68.63;97465.87;1610243;89;25808;-74
2022/08/04 01:04:19;;;;;;;11.28;10.20;;;;;;;16.35;68.66;97474.04;1512901;94;26673;-74
2022/08/04 01:07:13;;;;;;;10.48;9.28;;;;;;;16.33;68.66;97472.92;1512713;94;26045;-74
2022/08/04 01:09:51;;;;;;;11.65;9.88;;;;;;;16.32;68.66;97469.08;1517513;93;28110;-74
2022/08/04 01:12:34;;;;;;;12.05;10.10;;;;;;;16.29;68.71;97470.95;1553113;92;25757;-74
2022/08/04 01:15:18;;;;;;;12.73;10.70;;;;;;;16.24;68.82;97472.22;1554473;92;25832;-74
2022/08/04 01:18:06;;;;;;;15.25;10.75;;;;;;;16.24;68.82;97476.30;1532165;93;26843;-74
2022/08/04 01:20:54;;;;;;;12.45;10.72;;;;;;;16.13;68.93;97470.67;1538517;91;25529;-74
2022/08/04 01:23:51;;;;;;;11.57;10.38;;;;;;;16.08;69.09;97465.13;1541715;92;27416;-74
2022/08/04 01:26:51;;;;;;;12.95;9.98;;;;;;;16.08;69.11;97464.30;1518087;94;25954;-74
2022/08/04 01:29:25;;;;;;;12.18;10.65;;;;;;;16.05;68.99;97471.09;1519761;94;25816;-74
2022/08/04 01:32:18;;;;;;;13.40;10.00;;;;;;;15.99;69.11;97465.77;1519538;94;26070;-74
2022/08/04 01:34:52;;;;;;;;;;;;;;;15.97;69.19;97468.73;1521796;94;25801;-74
2022/08/04 01:37:51;;;;;;;13.88;9.98;;;;;;;15.94;69.55;97466.49;1532854;91;27509;-74
2022/08/04 01:40:20;;;;;;;12.82;10.23;;;;;;;15.92;69.23;97468.66;1563908;91;25734;-74
2022/08/04 01:42:51;;;;;;;14.05;10.23;;;;;;;15.89;69.34;97475.12;1535699;93;25766;-74
2022/08/04 01:45:18;;;;;;;13.00;10.28;;;;;;;15.83;69.38;97466.02;1518121;94;26155;-74
2022/08/04 01:47:52;;;;;;;16.02;10.85;;;;;;;15.80;69.41;97465.16;1535682;93;25866;-74
2022/08/04 01:50:20;;;;;;;15.15;10.95;;;;;;;15.79;69.43;97466.23;1542661;92;27582;-74
2022/08/04 01:52:48;;;;;;;12.37;11.00;;;;;;;15.74;69.49;97464.75;1518084;94;25955;-74
2022/08/04 01:55:16;;;;;;;14.63;10.45;;;;;;;15.66;69.50;97467.34;1523645;92;25565;-74
2022/08/04 01:57:52;;;;;;;13.93;10.35;;;;;;;15.62;69.68;97460.72;1559165;91;26670;-74
2022/08/04 02:00:22;;;;;;;13.50;10.95;;;;;;;15.62;69.74;97468.88;1580082;87;25796;-74
2022/08/04 02:02:50;;;;;;;12.03;10.38;;;;;;;15.61;69.84;97468.59;1663823;86;27392;-74
2022/08/04 02:05:20;;;;;;;11.78;10.20;;;;;;;15.58;69.84;97464.19;1663668;86;25842;-74
2022/08/04 02:08:17;;;;;;;15.15;10.03;;;;;;;15.56;69.88;97460.88;1663913;86;25938;-74
2022/08/04 02:11:16;;;;;;;10.75;9.58;;;;;;;15.53;69.95;97461.31;1616104;88;27558;-74
2022/08/04 02:13:50;;;;;;;15.90;10.35;;;;;;;15.52;69.97;97453.69;1609341;85;25878;-74
2022/08/04 02:16:34;;;;;;;14.75;9.95;;;;;;;15.52;70.04;97455.58;1669148;85;27382;-74
2022/08/04 02:19:27;;;;;;;11.75;9.55;;;;;;;15.49;70.07;97454.98;1613693;88;25699;-74
2022/08/04 02:21:58;;;;;;;11.93;9.83;;;;;;;15.47;70.01;97454.93;1614464;88;29081;-74
2022/08/04 02:24:27;;;;;;;11.30;9.43;;;;;;;15.44;70.03;97455.44;1610590;88;33033;-74
2022/08/04 02:26:56;;;;;;;15.45;9.35;;;;;;;15.41;70.01;97453.19;1614115;88;25951;-74
2022/08/04 02:29:54;;;;;;;10.40;8.90;;;;;;;15.39;69.98;97455.31;1614059;88;27402;-74
2022/08/04 02:32:27;;;;;;;13.50;9.63;;;;;;;15.35;70.04;97446.80;1613626;88;25733;-74
2022/08/04 02:35:06;;;;;;;10.18;9.18;;;;;;;15.34;70.06;97442.96;1613048;88;25838;-74
2022/08/04 02:37:35;;;;;;;13.18;10.65;;;;;;;15.34;70.05;97446.51;1613570;88;26055;-74
2022/08/04 02:40:05;;;;;;;11.40;9.53;;;;;;;15.31;70.06;97445.66;1613853;88;26125;-74
2022/08/04 02:42:33;;;;;;;12.35;9.93;;;;;;;15.27;70.10;97443.11;1613821;88;27444;-74
2022/08/04 02:45:00;;;;;;;10.98;9.80;;;;;;;15.24;70.15;97437.31;1626889;87;26251;-74
2022/08/04 02:47:29;;;;;;;11.22;10.03;;;;;;;15.22;70.20;97432.12;1632099;87;25741;-74
2022/08/04 02:49:57;;;;;;;12.98;10.50;;;;;;;15.22;70.26;97436.19;1632006;87;26809;-75
2022/08/04 02:52:25;;;;;;;11.93;10.03;;;;;;;15.21;70.29;97436.46;1631966;87;25792;-74
2022/08/04 02:54:55;;;;;;;16.05;11.00;;;;;;;15.19;70.28;97431.26;1632018;87;28116;-74
2022/08/04 02:57:25;;;;;;;11.57;9.95;;;;;;;15.18;70.32;97435.05;1702338;83;25521;-74
2022/08/04 03:00:10;;;;;;;12.82;9.33;;;;;;;15.17;70.34;97438.83;1691054;84;25723;-74
2022/08/04 03:03:24;;;;;;;11.70;9.80;;;;;;;15.14;70.38;97436.58;1639057;87;26070;-74
2022/08/04 03:06:05;;;;;;;;;;;;;;;15.14;70.37;97435.22;1570554;91;25950;-74
2022/08/04 03:09:06;;;;;;;10.90;9.45;;;;;;;15.12;70.64;97437.34;1566548;91;28253;-74
2022/08/04 03:11:47;;;;;;;12.20;9.73;;;;;;;15.06;70.51;97441.03;1569060;91;25844;-74
2022/08/04 03:15:00;;;;;;;12.63;10.48;;;;;;;15.04;70.53;97443.98;1523046;92;25837;-74
2022/08/04 03:17:54;;;;;;;12.68;10.30;;;;;;;15.03;70.54;97438.25;1543666;91;26012;-74
2022/08/04 03:20:52;;;;;;;16.15;11.05;;;;;;;15.02;70.64;97444.75;1543502;92;25828;-74
2022/08/04 03:23:47;;;;;;;13.58;9.53;;;;;;;15.00;70.68;97436.53;1546557;92;28218;-74
2022/08/04 03:27:02;;;;;;;8.43;7.53;;;;;;;15.02;70.75;97437.12;1835668;77;25256;-73
2022/08/04 03:30:01;;;;;;;19.67;12.70;;;;;;;14.94;70.58;97442.94;1790997;80;25692;-74
2022/08/04 03:33:05;;;;;;;15.98;12.18;;;;;;;14.85;70.72;97448.45;1791229;79;27386;-74
2022/08/04 03:36:10;;;;;;;13.50;9.95;;;;;;;14.81;70.91;97445.90;1749392;81;25912;-74
2022/08/04 03:38:44;;;;;;;10.55;9.45;;;;;;;14.79;71.00;97439.34;1678356;85;25851;-74
2022/08/04 03:41:28;;;;;;;13.22;10.30;;;;;;;14.78;71.00;97449.38;1671312;85;25487;-74
2022/08/04 03:44:12;;;;;;;11.75;9.53;;;;;;;14.78;70.98;97449.38;1671480;85;25807;-74
2022/08/04 03:47:01;;;;;;;11.80;8.60;;;;;;;14.77;71.03;97449.09;1671415;85;27373;-74
2022/08/04 03:50:11;;;;;;;14.78;9.80;;;;;;;14.77;71.05;97449.09;1629132;87;25755;-74
2022/08/04 03:53:21;;;;;;;11.18;9.88;;;;;;;14.77;71.13;97450.45;1623460;87;25294;-74
2022/08/04 03:56:09;;;;;;;13.75;10.18;;;;;;;14.78;71.20;97453.98;1625277;88;25712;-74
2022/08/04 03:59:14;;;;;;;14.28;11.00;;;;;;;14.75;71.28;97455.81;1684456;85;26875;-74
2022/08/04 04:02:04;;;;;;;16.20;11.12;;;;;;;14.73;71.45;97460.69;1684309;85;28410;-74
2022/08/04 04:05:11;;;;;;;13.05;10.00;;;;;;;14.72;71.57;97459.03;1684186;85;25737;-74
2022/08/04 04:08:10;;;;;;;14.60;10.55;;;;;;;14.71;71.65;97458.73;1684518;85;25861;-74
2022/08/04 04:10:53;;;;;;;11.80;10.45;;;;;;;14.71;71.76;97458.20;1684367;85;25656;-74
2022/08/04 04:13:34;;;;;;;11.73;10.50;;;;;;;14.73;71.86;97461.48;1679863;85;25317;-74
2022/08/04 04:16:28;;;;;;;14.58;9.20;;;;;;;14.75;71.84;97463.44;1670318;85;28257;-74
2022/08/04 04:19:19;;;;;;;11.65;8.90;;;;;;;14.76;71.89;97454.22;1709446;83;25718;-74
2022/08/04 04:22:09;;;;;;;13.25;10.78;;;;;;;14.79;71.95;97457.00;1706816;83;25818;-74
2022/08/04 04:25:05;;;;;;;17.37;12.82;;;;;;;14.83;72.04;97461.44;1720755;80;25878;-74
2022/08/04 04:28:20;;;;;;;18.10;13.68;;;;;;;14.84;72.11;97457.66;1712136;83;25716;-73
2022/08/04 04:31:26;;;;;;;20.00;14.07;;;;;;;14.86;72.17;97456.88;1713717;83;27471;-73
2022/08/04 04:34:42;;;;;;;13.53;12.13;;;;;;;14.87;72.38;97460.71;1715419;83;25736;-73
2022/08/04 04:37:49;;;;;;;13.18;11.10;;;;;;;14.91;72.44;97463.80;1714963;83;25749;-73
2022/08/04 04:40:40;;;;;;;13.22;11.00;;;;;;;14.93;72.54;97464.39;1661963;86;25712;-73
2022/08/04 04:43:33;;;;;;;16.67;12.47;;;;;;;14.96;72.61;97463.92;1659488;86;25743;-73
2022/08/04 04:46:27;;;;;;;14.98;12.90;;;;;;;15.00;72.67;97469.16;1627341;88;27434;-73
2022/08/04 04:49:05;;;;;;;22.13;15.98;;;;;;;15.03;72.69;97474.12;1557602;92;25853;-73
2022/08/04 04:51:49;;;;;;;21.17;16.23;;;;;;;15.08;72.71;97476.97;1519075;94;25823;-73
2022/08/04 04:54:42;;;;;;;17.15;15.32;;;;;;;15.12;72.74;97473.52;1516693;94;25953;-73
2022/08/04 04:57:20;;;;;;;24.15;14.05;;;;;;;15.15;72.78;97472.22;1519013;94;26826;-74
2022/08/04 05:00:01;;;;;;;20.20;13.03;;;;;;;15.21;72.91;97477.25;1495082;95;28154;-74
2022/08/04 05:02:59;;;;;;;15.60;12.55;;;;;;;15.25;73.01;97479.23;1492044;95;25854;-73
2022/08/04 05:06:01;;;;;;;13.90;12.47;;;;;;;15.29;73.05;97475.51;1494902;95;25909;-73
2022/08/04 05:08:54;;;;;;;15.43;12.57;;;;;;;15.35;73.23;97469.09;1495154;95;25871;-74
2022/08/04 05:11:35;;;;;;;;;;;;;;;15.40;73.31;97471.41;1497199;95;25877;-73
2022/08/04 05:14:12;;;;;;;16.37;12.10;;;;;;;15.47;73.70;97473.97;1530249;93;28057;-73
2022/08/04 05:16:46;;;;;;;14.00;12.58;;;;;;;15.50;73.50;97478.41;1530052;93;26623;-73
2022/08/04 05:19:33;;;;;;;14.78;12.88;;;;;;;15.58;73.61;97476.42;1530107;93;26085;-73
2022/08/04 05:22:05;;;;;;;15.38;12.13;;;;;;;15.63;73.63;97472.43;1457183;97;25818;-73
2022/08/04 05:24:39;;;;;;;14.15;12.68;;;;;;;15.71;73.73;97480.20;1469722;97;25787;-73
2022/08/04 05:27:22;;;;;;;15.13;13.03;;;;;;;15.78;73.84;97475.46;1449219;98;27523;-73
2022/08/04 05:29:54;;;;;;;13.90;12.28;;;;;;;15.84;73.85;97475.83;1467263;96;26036;-74
2022/08/04 05:32:28;;;;;;;12.88;11.50;;;;;;;15.92;73.86;97470.55;1409714;101;25973;-73
2022/08/04 05:35:00;;;;;;;15.40;12.98;;;;;;;15.99;73.93;97475.30;1420345;100;26113;-73
2022/08/04 05:37:29;;;;;;;16.90;12.18;;;;;;;16.06;74.00;97471.34;1426071;99;32435;-73
2022/08/04 05:40:01;;;;;;;13.85;12.25;;;;;;;16.14;73.93;97466.88;1430384;100;27489;-73
2022/08/04 05:42:30;;;;;;;20.82;15.70;;;;;;;16.21;73.89;97468.91;1430594;100;25905;-74
2022/08/04 05:44:57;;;;;;;16.37;14.38;;;;;;;16.31;73.91;97472.87;1442155;97;25858;-74
2022/08/04 05:47:26;;;;;;;18.32;12.93;;;;;;;16.40;74.21;97467.33;1483932;94;25884;-74
2022/08/04 05:49:55;;;;;;;15.63;12.90;;;;;;;16.49;74.09;97469.39;1521673;94;25957;-74
2022/08/04 05:52:23;;;;;;;19.15;14.03;;;;;;;16.59;74.13;97470.09;1521722;94;27429;-73
2022/08/04 05:54:51;;;;;;;15.80;13.78;;;;;;;16.68;74.12;97477.34;1521620;94;25826;-74
2022/08/04 05:57:19;;;;;;;19.20;14.03;;;;;;;16.77;74.06;97467.69;1536827;93;25789;-73
2022/08/04 05:59:46;;;;;;;17.98;14.93;;;;;;;16.87;74.11;97465.11;1542642;93;25953;-73
2022/08/04 06:02:15;;;;;;;19.02;14.60;;;;;;;16.96;74.19;97465.50;1542635;93;25858;-74
2022/08/04 06:04:45;;;;;;;17.80;14.83;;;;;;;17.05;74.27;97469.45;1542409;93;28163;-74
2022/08/04 06:07:13;;;;;;;15.15;13.50;;;;;;;17.14;74.34;97465.23;1542382;93;25578;-74
2022/08/04 06:09:40;;;;;;;17.15;14.03;;;;;;;17.24;74.32;97468.09;1542372;93;25871;-74
2022/08/04 06:12:14;;;;;;;15.88;13.72;;;;;;;17.33;74.34;97467.94;1542569;93;25600;-74
2022/08/04 06:14:44;;;;;;;13.85;12.33;;;;;;;17.43;74.38;97466.70;1542530;93;25804;-74
2022/08/04 06:17:15;;;;;;;18.20;12.58;;;;;;;17.54;74.30;97466.28;1542585;93;27428;-74
2022/08/04 06:19:44;;;;;;;15.40;12.88;;;;;;;17.64;74.37;97467.27;1625134;87;25975;-74
2022/08/04 06:22:13;;;;;;;14.15;12.70;;;;;;;17.74;74.31;97463.03;1643265;87;25798;-74
2022/08/04 06:24:41;;;;;;;13.10;11.80;;;;;;;17.83;74.27;97471.05;1643298;87;25921;-74
2022/08/04 06:27:08;;;;;;;14.95;11.73;;;;;;;17.93;74.11;97465.69;1680305;84;25912;-74
2022/08/04 06:29:40;;;;;;;16.73;11.70;;;;;;;18.02;74.03;97466.87;1723455;82;28068;-74
2022/08/04 06:32:23;;;;;;;12.90;11.50;;;;;;;18.12;74.00;97466.14;1744602;82;25683;-74
2022/08/04 06:34:42;;;;;;;13.22;10.75;;;;;;;18.23;74.00;97474.75;1719037;82;25731;-73
2022/08/04 06:37:09;;;;;;;12.55;11.25;;;;;;;18.33;73.95;97470.74;1744701;82;25691;-74
2022/08/04 06:39:37;;;;;;;14.15;10.60;;;;;;;18.44;73.96;97470.29;1745178;82;25917;-73
2022/08/04 06:42:04;;;;;;;12.15;10.95;;;;;;;18.55;73.93;97466.02;1744749;82;27394;-74
2022/08/04 06:44:33;;;;;;;13.65;10.15;;;;;;;18.64;73.95;97466.38;1744644;82;25680;-74
2022/08/04 06:47:01;;;;;;;11.63;10.45;;;;;;;18.73;73.77;97466.17;1744637;82;25368;-74
2022/08/04 06:49:30;;;;;;;11.33;9.55;;;;;;;18.85;73.71;97457.23;1745151;82;25746;-74
2022/08/04 06:51:58;;;;;;;13.35;9.80;;;;;;;18.96;73.48;97460.86;1744837;82;25634;-74
2022/08/04 06:54:24;;;;;;;12.68;9.95;;;;;;;19.08;73.54;97464.22;1744465;82;27458;-74
2022/08/04 06:56:54;;;;;;;12.18;10.88;;;;;;;19.18;73.47;97460.20;1744689;82;25667;-74
2022/08/04 06:59:22;;;;;;;9.58;8.58;;;;;;;19.27;73.12;97459.98;1744804;82;25723;-74
2022/08/04 07:01:50;;;;;;;13.03;9.13;;;;;;;19.37;72.80;97453.18;1744739;82;25763;-74
2022/08/04 07:04:17;;;;;;;10.80;8.45;;;;;;;19.48;72.46;97457.33;1744775;82;25451;-74
2022/08/04 07:06:43;;;;;;;10.25;8.68;;;;;;;19.58;72.20;97452.75;1717311;82;28189;-74
2022/08/04 07:09:10;;;;;;;13.00;8.70;;;;;;;19.68;71.92;97448.67;1744636;82;25792;-74
2022/08/04 07:11:37;;;;;;;9.40;8.38;;;;;;;19.79;71.62;97457.78;1744734;81;25656;-74
2022/08/04 07:14:04;;;;;;;10.88;8.08;;;;;;;19.90;71.30;97451.78;1744787;82;25770;-74
2022/08/04 07:16:33;;;;;;;8.40;7.53;;;;;;;20.02;70.92;97453.73;1744823;82;25675;-74
2022/08/04 07:19:00;;;;;;;9.55;7.50;;;;;;;20.15;70.77;97451.84;1744824;82;27383;-74
2022/08/04 07:21:26;;;;;;;8.15;7.35;;;;;;;20.27;70.48;97455.70;1744661;82;25228;-74
2022/08/04 07:23:53;;;;;;;8.30;7.17;;;;;;;20.37;70.17;97455.19;1744724;82;25747;-75
2022/08/04 07:26:27;;;;;;;8.35;7.53;;;;;;;20.49;69.84;97450.27;1745921;81;25839;-74
2022/08/04 07:28:54;;;;;;;9.65;7.05;;;;;;;20.61;69.70;97447.25;1742377;82;25691;-74
2022/08/04 07:31:22;;;;;;;10.13;7.22;;;;;;;20.74;69.43;97449.98;1747695;82;27565;-74
2022/08/04 07:33:49;;;;;;;7.85;6.85;;;;;;;20.87;69.24;97453.55;1747610;82;25680;-74
2022/08/04 07:36:16;;;;;;;7.37;6.67;;;;;;;20.99;68.83;97449.96;1747588;82;25713;-74
2022/08/04 07:38:44;;;;;;;7.33;6.62;;;;;;;21.12;68.50;97442.53;1747732;82;25644;-74
2022/08/04 07:41:11;;;;;;;7.28;6.55;;;;;;;21.30;68.25;97445.79;1747697;82;25960;-74
2022/08/04 07:43:38;;;;;;;8.13;6.28;;;;;;;21.54;68.48;97444.06;1747672;82;27329;-75
2022/08/04 07:46:05;;;;;;;6.85;5.97;;;;;;;21.81;68.31;97422.52;1744542;82;25482;-74
2022/08/04 07:48:32;;;;;;;8.43;6.47;;;;;;;22.45;68.15;97444.14;1718750;83;25668;-74
2022/08/04 07:50:59;;;;;;;7.20;5.15;;;;;;;23.05;67.62;97439.24;1696153;83;25790;-74
2022/08/04 07:53:26;;;;;;;5.85;4.58;;;;;;;23.60;66.57;97434.52;1718639;83;25643;-76
2022/08/04 07:55:54;;;;;;;6.78;4.92;;;;;;;24.17;65.16;97444.22;1718767;83;28027;-76
2022/08/04 07:58:20;;;;;;;8.80;4.67;;;;;;;24.71;64.48;97434.86;1718686;83;25768;-76
2022/08/04 08:00:47;;;;;;;3.67;3.20;;;;;;;25.26;63.35;97436.38;1718763;83;25774;-76
2022/08/04 08:03:16;;;;;;;5.50;3.10;;;;;;;25.78;62.57;97428.19;1718684;83;25770;-76
2022/08/04 08:05:42;;;;;;;5.33;2.87;;;;;;;26.30;61.28;97433.45;1715182;83;26639;-75
2022/08/04 08:08:10;;;;;;;3.30;2.30;;;;;;;26.77;60.27;97431.46;1732191;82;27421;-76
2022/08/04 08:10:38;;;;;;;2.42;2.22;;;;;;;27.25;59.37;97430.80;1718610;83;25271;-76
2022/08/04 08:13:06;;;;;;;2.60;2.27;;;;;;;27.71;58.46;97424.81;1718849;83;25653;-76
2022/08/04 08:15:33;;;;;;;4.00;2.15;;;;;;;28.12;57.49;97423.04;1718901;83;26260;-76
2022/08/04 08:17:59;;;;;;;2.25;2.15;;;;;;;28.50;56.15;97426.61;1718763;83;25844;-76
2022/08/04 08:20:28;;;;;;;2.17;2.08;;;;;;;28.84;55.45;97432.16;1718833;83;27441;-76
2022/08/04 08:22:55;;;;;;;2.83;1.95;;;;;;;29.19;54.57;97427.92;1718685;83;25723;-74
2022/08/04 08:25:21;;;;;;;2.37;2.05;;;;;;;29.54;53.61;97430.03;1718762;83;25818;-74
2022/08/04 08:27:48;;;;;;;4.00;2.40;;;;;;;29.89;52.88;97432.06;1702206;82;25768;-73
2022/08/04 08:30:14;;;;;;;3.55;2.08;;;;;;;30.24;52.13;97425.73;1718905;83;25947;-74
2022/08/04 08:32:41;;;;;;;4.50;2.10;;;;;;;30.61;50.65;97421.20;1718629;83;27394;-74
2022/08/04 08:35:08;;;;;;;2.12;1.92;;;;;;;30.95;49.71;97429.23;1718727;83;25739;-74
2022/08/04 08:37:49;;;;;;;2.05;1.85;;;;;;;31.34;48.97;97432.63;1702119;84;25776;-74
2022/08/04 08:40:36;;;;;;;3.67;2.08;;;;;;;31.72;48.07;97426.20;1713021;83;26447;-73
2022/08/04 08:43:35;;;;;;;2.87;2.62;;;;;;;32.12;47.53;97425.49;1712667;83;26411;-74
2022/08/04 08:46:28;;;;;;;3.33;2.42;;;;;;;32.52;46.50;97424.95;1695807;83;28270;-75
2022/08/04 08:49:03;;;;;;;3.30;2.30;;;;;;;32.97;45.62;97433.66;1715065;83;25750;-74
2022/08/04 08:51:50;;;;;;;2.58;1.95;;;;;;;33.38;44.86;97423.22;1713184;83;25766;-75
2022/08/04 08:54:43;;;;;;;2.62;1.92;;;;;;;33.69;43.91;97419.05;1719021;83;25998;-75
2022/08/04 08:57:46;;;;;;;2.65;2.05;;;;;;;34.06;42.91;97422.93;1677302;85;26443;-74
2022/08/04 09:00:44;;;;;;;2.52;2.33;;;;;;;34.44;42.08;97420.25;1658338;85;28232;-74
2022/08/04 09:03:39;;;;;;;2.37;2.20;;;;;;;34.82;41.27;97416.69;1630619;87;25804;-74
2022/08/04 09:06:30;;;;;;;3.98;1.85;;;;;;;35.04;40.39;97415.11;1574205;91;25828;-74
2022/08/04 09:09:24;;;;;;;2.10;2.00;;;;;;;34.96;39.50;97420.37;1550301;92;26165;-74
2022/08/04 09:12:08;;;;;;;2.47;1.80;;;;;;;34.78;38.42;97412.98;1574432;91;25800;-74
2022/08/04 09:14:57;;;;;;;2.12;2.02;;;;;;;34.71;37.91;97417.61;1550111;92;27406;-74
2022/08/04 09:17:46;;;;;;;3.70;2.00;;;;;;;34.67;38.00;97429.55;1525373;93;25588;-74
2022/08/04 09:20:48;;;;;;;2.87;2.40;;;;;;;34.76;37.15;97422.97;1525414;93;25852;-75
2022/08/04 09:23:47;;;;;;;2.52;2.33;;;;;;;34.83;36.34;97421.70;1529242;92;25858;-74
2022/08/04 09:26:39;;;;;;;2.33;2.12;;;;;;;34.67;36.24;97418.94;1537013;92;25789;-74
2022/08/04 09:29:17;;;;;;;4.72;2.50;;;;;;;34.62;36.06;97416.44;1582493;90;27457;-74
2022/08/04 09:32:04;;;;;;;2.35;2.05;;;;;;;34.68;36.00;97415.77;1582643;90;25389;-74
2022/08/04 09:35:13;;;;;;;2.75;1.90;;;;;;;34.63;35.25;97409.06;1597308;89;25924;-75
2022/08/04 09:38:10;;;;;;;2.40;2.08;;;;;;;34.61;35.58;97412.83;1606066;89;25835;-75
2022/08/04 09:40:58;;;;;;;5.70;2.25;;;;;;;34.63;34.85;97409.06;1606009;89;25925;-75
2022/08/04 09:43:42;;;;;;;2.50;2.30;;;;;;;34.62;34.39;97406.62;1586067;89;27427;-74
2022/08/04 09:46:22;;;;;;;2.60;2.40;;;;;;;34.43;33.95;97410.21;1574937;91;26484;-75
2022/08/04 09:49:02;;;;;;;2.67;2.47;;;;;;;34.37;34.41;97408.89;1574121;91;26849;-74
2022/08/04 09:51:52;;;;;;;3.70;2.22;;;;;;;34.37;34.38;97395.47;1587768;87;26159;-74
2022/08/04 09:54:49;;;;;;;2.87;2.55;;;;;;;34.37;34.59;97401.08;1641935;87;25924;-74
2022/08/04 09:57:35;;;;;;;2.60;2.40;;;;;;;34.39;34.46;97402.34;1592604;89;27624;-75
2022/08/04 10:00:08;;;;;;;2.40;2.20;;;;;;;34.35;34.06;97402.84;1630189;86;25742;-75
2022/08/04 10:02:55;;;;;;;2.75;2.20;;;;;;;34.16;33.92;97398.00;1708728;83;25774;-74
2022/08/04 10:05:30;;;;;;;3.08;2.08;;;;;;;34.17;34.11;97404.41;1631455;87;26581;-74
2022/08/04 10:08:14;;;;;;;2.60;2.40;;;;;;;34.22;34.13;97396.52;1580641;90;25595;-75
2022/08/04 10:11:11;;;;;;;2.92;2.37;;;;;;;34.22;33.76;97394.31;1605291;87;27420;-74
2022/08/04 10:14:00;;;;;;;3.17;2.70;;;;;;;34.21;34.17;97385.67;1630361;87;25807;-74
2022/08/04 10:16:40;;;;;;;2.92;2.72;;;;;;;34.27;33.82;97395.47;1630625;87;25863;-75
2022/08/04 10:19:30;;;;;;;2.58;2.37;;;;;;;34.20;33.08;97399.46;1627912;87;25800;-75
2022/08/04 10:22:16;;;;;;;3.22;2.30;;;;;;;34.20;33.60;97399.46;1630367;87;25847;-74
2022/08/04 10:25:08;;;;;;;4.58;2.60;;;;;;;34.29;33.68;97395.91;1579880;90;27410;-75
2022/08/04 10:27:47;;;;;;;;;;;;;;;34.35;33.63;97391.63;1577801;90;25856;-75
2022/08/04 10:30:18;;;;;;;3.30;3.00;;;;;;;34.33;33.06;97387.80;1577986;90;25845;-75
2022/08/04 10:33:05;;;;;;;3.90;3.60;;;;;;;34.33;33.93;97381.38;1578500;90;25741;-75
2022/08/04 10:35:45;;;;;;;3.05;2.50;;;;;;;34.38;33.92;97381.09;1576866;90;25799;-75
2022/08/04 10:38:39;;;;;;;3.52;3.15;;;;;;;34.47;34.00;97374.68;1466903;96;27471;-75
2022/08/04 10:41:14;;;;;;;3.67;3.02;;;;;;;34.48;33.56;97376.30;1447637;98;25572;-75
2022/08/04 10:44:11;;;;;;;4.97;3.27;;;;;;;34.47;33.20;97366.86;1447564;98;25928;-75
2022/08/04 10:46:49;;;;;;;3.50;2.60;;;;;;;34.41;33.21;97371.97;1457547;97;25705;-75
2022/08/04 10:49:34;;;;;;;4.67;3.27;;;;;;;34.50;32.42;97372.55;1460145;97;26866;-75
2022/08/04 10:52:33;;;;;;;3.30;3.05;;;;;;;34.62;31.76;97372.41;1460158;97;27464;-75
2022/08/04 10:55:16;;;;;;;3.85;3.08;;;;;;;34.69;31.77;97367.52;1446515;97;25393;-75
2022/08/04 10:57:57;;;;;;;3.17;2.98;;;;;;;34.62;32.33;97360.38;1445410;98;25913;-75
2022/08/04 11:00:27;;;;;;;5.00;3.02;;;;;;;34.67;31.55;97366.48;1442349;97;26183;-75
2022/08/04 11:03:07;;;;;;;2.92;2.72;;;;;;;34.56;31.55;97369.66;1433609;100;25870;-75
2022/08/04 11:05:57;;;;;;;3.77;2.60;;;;;;;34.57;32.42;97371.87;1433834;100;27059;-75
2022/08/04 11:08:30;;;;;;;2.85;2.65;;;;;;;34.69;32.49;97365.53;1460431;98;25867;-76
2022/08/04 11:11:21;;;;;;;2.87;2.67;;;;;;;34.68;32.12;97363.91;1433641;99;25885;-75
2022/08/04 11:14:07;;;;;;;3.27;2.80;;;;;;;34.61;32.39;97364.36;1434075;100;25667;-75
2022/08/04 11:16:59;;;;;;;3.00;2.67;;;;;;;34.34;31.22;97359.19;1433627;100;25837;-75
2022/08/04 11:19:43;;;;;;;3.02;2.50;;;;;;;34.20;31.55;97361.64;1426680;100;28055;-75
2022/08/04 11:22:23;;;;;;;3.00;2.80;;;;;;;34.13;32.08;97357.30;1419296;99;25823;-74
2022/08/04 11:25:01;;;;;;;3.12;2.87;;;;;;;34.10;32.60;97361.63;1433356;99;26187;-75
2022/08/04 11:27:48;;;;;;;3.58;2.55;;;;;;;34.14;32.89;97359.73;1403648;100;26099;-75
2022/08/04 11:30:16;;;;;;;2.72;2.50;;;;;;;34.13;32.87;97360.09;1370320;104;25883;-74
2022/08/04 11:33:07;;;;;;;2.90;2.58;;;;;;;34.13;33.36;97358.70;1382980;103;27484;-75
2022/08/04 11:35:39;;;;;;;3.52;3.00;;;;;;;34.21;33.99;97368.88;1416350;100;25843;-74
2022/08/04 11:38:23;;;;;;;3.40;2.90;;;;;;;34.24;33.20;97366.74;1423198;100;25953;-75
2022/08/04 11:40:55;;;;;;;3.52;2.90;;;;;;;34.23;33.12;97366.52;1374107;103;26085;-75
2022/08/04 11:43:33;;;;;;;3.08;2.77;;;;;;;34.17;33.24;97370.22;1420156;101;25912;-75
2022/08/04 11:46:05;;;;;;;4.03;3.02;;;;;;;34.20;32.98;97361.64;1410322;101;27684;-75
2022/08/04 11:48:45;;;;;;;5.87;2.90;;;;;;;34.06;32.30;97359.33;1425365;100;25818;-75
2022/08/04 11:51:12;;;;;;;3.65;2.52;;;;;;;33.85;32.58;97361.06;1410463;101;25855;-75
2022/08/04 11:53:41;;;;;;;4.33;2.92;;;;;;;33.67;32.86;97357.59;1392172;103;25889;-75
2022/08/04 11:56:12;;;;;;;2.92;2.72;;;;;;;33.69;33.68;97357.47;1392278;103;26008;-75
2022/08/04 11:58:39;;;;;;;4.30;2.98;;;;;;;33.73;33.89;97350.53;1412793;101;27604;-75
2022/08/04 12:01:48;;;;;;;2.72;2.52;;;;;;;33.66;33.50;97350.38;1434000;100;25792;-75
2022/08/04 12:04:46;;;;;;;4.35;2.87;;;;;;;33.66;33.59;97344.19;1444113;97;25957;-75
2022/08/04 12:07:29;;;;;;;3.00;2.80;;;;;;;33.49;33.10;97340.36;1552585;87;26076;-75
2022/08/04 12:10:07;;;;;;;3.55;2.92;;;;;;;33.26;33.79;97343.80;1642885;87;25345;-75
2022/08/04 12:13:03;;;;;;;3.60;2.83;;;;;;;33.33;33.49;97342.38;1576969;90;28386;-75
2022/08/04 12:15:41;;;;;;;4.28;3.05;;;;;;;33.20;33.32;97336.02;1549562;92;25968;-75
2022/08/04 12:18:39;;;;;;;3.02;2.80;;;;;;;33.13;33.95;97334.42;1552635;90;25351;-75
2022/08/04 12:21:14;;;;;;;3.02;2.72;;;;;;;33.05;34.26;97330.64;1590336;88;26013;-75
2022/08/04 12:23:43;;;;;;;3.40;3.10;;;;;;;32.98;34.28;97322.05;1519856;93;25965;-75
2022/08/04 12:26:18;;;;;;;3.30;3.00;;;;;;;32.84;34.63;97326.70;1503649;95;27490;-75